createdAt,value
2023-01-20T00:00:04.154Z,100234.38
2023-01-20T00:02:33.124Z,100229.38
2023-01-20T00:05:00.630Z,100237.38
2023-01-20T00:07:28.176Z,100229.44
2023-01-20T00:09:55.976Z,100240.06
2023-01-20T00:12:23.503Z,100258.22
2023-01-20T00:14:50.991Z,100253.31
2023-01-20T00:17:18.491Z,100246.06
2023-01-20T00:19:47.339Z,100244.25
2023-01-20T00:22:14.891Z,100247.34
2023-01-20T00:24:42.387Z,100248.78
2023-01-20T00:27:10.086Z,100238.31
2023-01-20T00:29:37.578Z,100260.19
2023-01-20T00:32:05.249Z,100270.41
2023-01-20T00:34:32.741Z,100270.28
2023-01-20T00:37:01.609Z,100250.28
2023-01-20T00:39:29.101Z,100262.19
2023-01-20T00:41:56.614Z,100273.66
2023-01-20T00:44:24.169Z,100273.81
2023-01-20T00:46:51.657Z,100260.56
2023-01-20T00:49:19.153Z,100258.00
2023-01-20T00:51:46.595Z,100270.69
2023-01-20T00:54:15.489Z,100276.53
2023-01-20T00:56:42.946Z,100269.13
2023-01-20T00:59:10.551Z,100256.13
2023-01-20T01:01:38.042Z,100275.53
2023-01-20T01:04:05.960Z,100275.13
2023-01-20T01:06:33.515Z,100276.09
2023-01-20T01:09:01.046Z,100278.13
2023-01-20T01:11:29.963Z,100263.25
2023-01-20T01:13:57.913Z,100293.81
2023-01-20T01:16:25.512Z,100283.78
2023-01-20T01:18:53.993Z,100287.63
2023-01-20T01:21:21.551Z,100286.31
2023-01-20T01:23:49.154Z,100288.47
2023-01-20T01:26:16.688Z,100302.97
2023-01-20T01:28:47.133Z,100301.56
2023-01-20T01:31:14.620Z,100304.13
2023-01-20T01:33:42.130Z,100295.97
2023-01-20T01:36:12.115Z,100311.69
2023-01-20T01:38:39.587Z,100313.09
2023-01-20T01:41:07.323Z,100307.97
2023-01-20T01:43:35.657Z,100319.38
2023-01-20T01:46:04.881Z,100318.38
2023-01-20T01:48:32.868Z,100326.56
2023-01-20T01:51:01.971Z,100312.28
2023-01-20T01:53:29.939Z,100330.19
2023-01-20T01:55:57.704Z,100323.06
2023-01-20T01:58:26.013Z,100325.00
2023-01-20T02:00:53.607Z,100325.88
2023-01-20T02:03:22.517Z,100325.50
2023-01-20T02:05:50.113Z,100333.00
2023-01-20T02:08:17.698Z,100324.53
2023-01-20T02:10:45.185Z,100333.81
2023-01-20T02:13:12.717Z,100319.84
2023-01-20T02:15:41.100Z,100352.44
2023-01-20T02:18:18.266Z,100332.88
2023-01-20T02:20:57.413Z,100321.44
2023-01-20T02:23:29.147Z,100356.09
2023-01-20T02:26:07.125Z,100342.63
2023-01-20T02:29:07.736Z,100349.97
2023-01-20T02:31:52.929Z,100361.66
2023-01-20T02:34:23.826Z,100352.25
2023-01-20T02:36:51.893Z,100367.06
2023-01-20T02:39:27.696Z,100366.53
2023-01-20T02:41:57.396Z,100370.25
2023-01-20T02:44:26.891Z,100358.25
2023-01-20T02:46:54.958Z,100363.63
2023-01-20T02:49:24.942Z,100366.22
2023-01-20T02:51:52.621Z,100356.59
2023-01-20T02:54:20.158Z,100380.41
2023-01-20T02:56:47.650Z,100375.03
2023-01-20T02:59:15.901Z,100372.47
2023-01-20T03:01:44.272Z,100381.13
2023-01-20T03:04:11.954Z,100381.75
2023-01-20T03:06:42.035Z,100372.25
2023-01-20T03:09:10.378Z,100355.56
2023-01-20T03:11:38.937Z,100379.72
2023-01-20T03:14:07.495Z,100378.44
2023-01-20T03:16:35.038Z,100374.97
2023-01-20T03:19:02.565Z,100378.75
2023-01-20T03:21:30.053Z,100379.13
2023-01-20T03:24:04.585Z,100388.31
2023-01-20T03:26:32.163Z,100388.72
2023-01-20T03:28:59.929Z,100373.88
2023-01-20T03:31:28.725Z,100394.31
2023-01-20T03:33:56.893Z,100394.59
2023-01-20T03:36:24.905Z,100385.88
2023-01-20T03:38:52.427Z,100390.41
2023-01-20T03:41:24.083Z,100381.88
2023-01-20T03:43:53.459Z,100391.75
2023-01-20T03:46:21.837Z,100387.22
2023-01-20T03:48:50.543Z,100373.78
2023-01-20T03:51:19.705Z,100384.16
2023-01-20T03:53:48.063Z,100385.97
2023-01-20T03:56:15.904Z,100405.50
2023-01-20T03:58:45.412Z,100388.41
2023-01-20T04:01:18.773Z,100405.72
2023-01-20T04:03:47.132Z,100406.09
2023-01-20T04:06:14.840Z,100399.72
2023-01-20T04:08:42.749Z,100400.97
2023-01-20T04:11:10.206Z,100388.31
2023-01-20T04:13:37.746Z,100390.53
2023-01-20T04:16:10.479Z,100396.63
2023-01-20T04:18:38.254Z,100395.63
2023-01-20T04:21:05.864Z,100402.63
2023-01-20T04:23:33.731Z,100407.78
2023-01-20T04:26:01.255Z,100411.78
2023-01-20T04:28:29.651Z,100407.00
2023-01-20T04:30:57.248Z,100403.41
2023-01-20T04:33:26.277Z,100423.69
2023-01-20T04:35:53.813Z,100427.88
2023-01-20T04:38:21.381Z,100428.91
2023-01-20T04:40:48.903Z,100426.81
2023-01-20T04:43:16.826Z,100435.34
2023-01-20T04:45:44.338Z,100432.03
2023-01-20T04:48:11.858Z,100423.88
2023-01-20T04:50:41.121Z,100432.31
2023-01-20T04:53:08.690Z,100430.13
2023-01-20T04:55:36.231Z,100432.31
2023-01-20T04:58:03.804Z,100432.38
2023-01-20T05:00:31.376Z,100418.81
2023-01-20T05:02:59.132Z,100427.09
2023-01-20T05:05:26.632Z,100427.22
2023-01-20T05:07:55.606Z,100442.50
2023-01-20T05:10:23.090Z,100452.22
2023-01-20T05:12:50.620Z,100435.53
2023-01-20T05:15:18.190Z,100450.78
2023-01-20T05:17:45.694Z,100460.69
2023-01-20T05:20:14.243Z,100455.16
2023-01-20T05:22:41.724Z,100464.25
2023-01-20T05:25:10.809Z,100463.53
2023-01-20T05:27:38.304Z,100455.44
2023-01-20T05:30:06.153Z,100472.22
2023-01-20T05:32:33.699Z,100471.72
2023-01-20T05:35:01.175Z,100472.41
2023-01-20T05:37:28.954Z,100468.47
2023-01-20T05:39:56.620Z,100481.88
2023-01-20T05:42:25.472Z,100466.00
2023-01-20T05:44:53.006Z,100474.16
2023-01-20T05:47:20.463Z,100476.94
2023-01-20T05:49:47.945Z,100475.66
2023-01-20T05:52:15.510Z,100479.75
2023-01-20T05:54:43.488Z,100487.34
2023-01-20T05:57:11.010Z,100485.66
2023-01-20T05:59:39.974Z,100497.41
2023-01-20T06:02:07.478Z,100495.38
2023-01-20T06:04:35.105Z,100492.66
2023-01-20T06:07:02.610Z,100499.81
2023-01-20T06:09:30.151Z,100500.47
2023-01-20T06:11:57.691Z,100488.69
2023-01-20T06:14:25.341Z,100489.91
2023-01-20T06:16:54.156Z,100476.84
2023-01-20T06:19:21.929Z,100477.38
2023-01-20T06:21:49.362Z,100483.41
2023-01-20T06:24:16.892Z,100489.38
2023-01-20T06:26:44.342Z,100491.16
2023-01-20T06:29:11.857Z,100489.66
2023-01-20T06:31:39.477Z,100493.34
2023-01-20T06:34:08.352Z,100478.56
2023-01-20T06:36:35.855Z,100483.66
2023-01-20T06:39:03.552Z,100502.63
2023-01-20T06:41:31.008Z,100507.94
2023-01-20T06:43:58.560Z,100503.44
2023-01-20T06:46:26.072Z,100499.13
2023-01-20T06:49:00.160Z,100503.75
2023-01-20T06:51:29.501Z,100519.69
2023-01-20T06:53:57.045Z,100530.16
2023-01-20T06:56:24.936Z,100507.44
2023-01-20T06:58:52.547Z,100514.72
2023-01-20T07:01:21.809Z,100516.22
2023-01-20T07:03:49.578Z,100520.69
2023-01-20T07:06:17.782Z,100534.00
2023-01-20T07:08:46.935Z,100550.44
2023-01-20T07:11:14.541Z,100546.63
2023-01-20T07:13:42.072Z,100539.66
2023-01-20T07:16:11.983Z,100553.75
2023-01-20T07:18:40.607Z,100555.44
2023-01-20T07:21:08.214Z,100565.13
2023-01-20T07:23:35.747Z,100556.09
2023-01-20T07:26:05.143Z,100566.13
2023-01-20T07:28:32.986Z,100559.44
2023-01-20T07:31:03.803Z,100560.50
2023-01-20T07:33:31.333Z,100552.31
2023-01-20T07:35:58.837Z,100576.09
2023-01-20T07:38:26.375Z,100556.59
2023-01-20T07:40:53.888Z,100576.94
2023-01-20T07:43:22.729Z,100587.38
2023-01-20T07:45:50.303Z,100579.88
2023-01-20T07:48:17.904Z,100561.97
2023-01-20T07:50:45.422Z,100576.97
2023-01-20T07:53:12.967Z,100605.44
2023-01-20T07:55:40.453Z,100592.38
2023-01-20T07:58:07.923Z,100605.28
2023-01-20T08:00:36.818Z,100609.09
2023-01-20T08:03:04.398Z,100603.41
2023-01-20T08:05:32.913Z,100606.19
2023-01-20T08:08:00.471Z,100612.94
2023-01-20T08:10:28.883Z,100612.09
2023-01-20T08:12:56.575Z,100615.78
2023-01-20T08:15:24.060Z,100612.00
2023-01-20T08:17:55.463Z,100631.44
2023-01-20T08:20:23.083Z,100632.47
2023-01-20T08:22:50.673Z,100632.03
2023-01-20T08:25:18.193Z,100645.78
2023-01-20T08:27:45.749Z,100630.16
2023-01-20T08:30:13.543Z,100640.94
2023-01-20T08:32:41.099Z,100639.19
2023-01-20T08:35:10.278Z,100661.56
2023-01-20T08:37:37.809Z,100628.09
2023-01-20T08:40:06.559Z,100657.91
2023-01-20T08:42:34.021Z,100658.03
2023-01-20T08:45:01.679Z,100677.72
2023-01-20T08:47:29.162Z,100660.72
2023-01-20T08:49:56.689Z,100680.22
2023-01-20T08:52:25.603Z,100677.03
2023-01-20T08:54:53.860Z,100677.69
2023-01-20T08:57:21.399Z,100679.69
2023-01-20T08:59:50.800Z,100673.06
2023-01-20T09:02:18.386Z,100671.91
2023-01-20T09:04:46.216Z,100686.66
2023-01-20T09:07:13.740Z,100695.19
2023-01-20T09:09:42.589Z,100695.50
2023-01-20T09:12:10.088Z,100695.56
2023-01-20T09:14:37.588Z,100690.34
2023-01-20T09:17:05.086Z,100703.47
2023-01-20T09:19:32.533Z,100701.06
2023-01-20T09:22:00.087Z,100701.56
2023-01-20T09:24:27.654Z,100689.75
2023-01-20T09:26:57.181Z,100704.06
2023-01-20T09:29:24.768Z,100715.00
2023-01-20T09:31:52.913Z,100694.31
2023-01-20T09:34:23.132Z,100716.94
2023-01-20T09:36:50.986Z,100724.72
2023-01-20T09:39:36.422Z,100717.59
2023-01-20T09:42:24.460Z,100719.78
2023-01-20T09:44:53.909Z,100718.16
2023-01-20T09:47:28.634Z,100716.72
2023-01-20T09:50:21.515Z,100738.56
2023-01-20T09:53:04.672Z,100740.66
2023-01-20T09:55:33.712Z,100726.88
2023-01-20T09:58:06.607Z,100746.06
2023-01-20T10:00:34.179Z,100765.34
2023-01-20T10:03:02.313Z,100756.03
2023-01-20T10:05:32.855Z,100774.03
2023-01-20T10:08:02.258Z,100771.66
2023-01-20T10:10:30.399Z,100770.03
2023-01-20T10:12:58.082Z,100758.50
2023-01-20T10:15:28.277Z,100765.53
2023-01-20T10:17:58.464Z,100777.50
2023-01-20T10:20:28.716Z,100778.06
2023-01-20T10:22:57.278Z,100766.88
2023-01-20T10:25:26.026Z,100777.72
2023-01-20T10:27:54.380Z,100762.97
2023-01-20T10:30:22.766Z,100779.00
2023-01-20T10:32:53.454Z,100788.47
2023-01-20T10:35:21.551Z,100761.34
2023-01-20T10:37:49.083Z,100786.53
2023-01-20T10:40:18.698Z,100775.88
2023-01-20T10:42:47.543Z,100779.94
2023-01-20T10:45:15.797Z,100768.63
2023-01-20T10:47:45.211Z,100771.00
2023-01-20T10:50:18.122Z,100784.13
2023-01-20T10:52:47.848Z,100779.38
2023-01-20T10:55:19.452Z,100789.16
2023-01-20T10:57:48.691Z,100790.97
2023-01-20T11:00:18.741Z,100791.91
2023-01-20T11:02:49.249Z,100793.63
2023-01-20T11:05:19.273Z,100775.44
2023-01-20T11:07:47.033Z,100784.81
2023-01-20T11:10:15.235Z,100785.97
2023-01-20T11:12:43.221Z,100787.38
2023-01-20T11:15:15.789Z,100810.31
2023-01-20T11:17:43.262Z,100801.28
2023-01-20T11:20:15.255Z,100820.56
2023-01-20T11:22:46.022Z,100780.53
2023-01-20T11:25:22.214Z,100805.56
2023-01-20T11:27:49.733Z,100794.84
2023-01-20T11:30:22.135Z,100821.00
2023-01-20T11:32:50.515Z,100818.63
2023-01-20T11:35:21.728Z,100819.56
2023-01-20T11:37:50.566Z,100807.00
2023-01-20T11:40:22.050Z,100809.78
2023-01-20T11:42:49.963Z,100812.94
2023-01-20T11:45:28.076Z,100819.91
2023-01-20T11:48:02.976Z,100821.25
2023-01-20T11:50:31.757Z,100811.75
2023-01-20T11:53:13.696Z,100834.44
2023-01-20T11:55:48.420Z,100822.97
2023-01-20T11:58:17.530Z,100824.00
2023-01-20T12:00:45.127Z,100830.56
2023-01-20T12:03:19.327Z,100826.19
2023-01-20T12:05:48.369Z,100836.13
2023-01-20T12:08:17.880Z,100841.97
2023-01-20T12:10:45.366Z,100838.56
2023-01-20T12:13:14.095Z,100838.47
2023-01-20T12:15:41.917Z,100849.59
2023-01-20T12:18:12.045Z,100846.00
2023-01-20T12:20:54.083Z,100836.66
2023-01-20T12:23:24.902Z,100840.59
2023-01-20T12:25:54.166Z,100850.78
2023-01-20T12:28:23.033Z,100856.22
2023-01-20T12:30:52.549Z,100843.81
2023-01-20T12:33:24.563Z,100858.63
2023-01-20T12:36:25.641Z,100865.06
2023-01-20T12:39:06.144Z,100865.50
2023-01-20T12:41:36.887Z,100856.34
2023-01-20T12:44:06.035Z,100869.03
2023-01-20T12:46:35.326Z,100865.25
2023-01-20T12:49:07.268Z,100867.66
2023-01-20T12:51:37.614Z,100847.69
2023-01-20T12:54:11.702Z,100834.38
2023-01-20T12:56:41.386Z,100844.31
2023-01-20T12:59:10.025Z,100859.88
2023-01-20T13:01:42.736Z,100871.41
2023-01-20T13:04:21.181Z,100880.38
2023-01-20T13:06:55.631Z,100873.66
2023-01-20T13:09:30.924Z,100870.38
2023-01-20T13:12:01.744Z,100877.06
2023-01-20T13:14:31.539Z,100860.59
2023-01-20T13:17:00.007Z,100876.19
2023-01-20T13:19:29.496Z,100881.16
2023-01-20T13:22:07.675Z,100879.38
2023-01-20T13:24:37.144Z,100881.59
2023-01-20T13:27:04.660Z,100884.06
2023-01-20T13:29:46.553Z,100891.84
2023-01-20T13:32:30.165Z,100897.25
2023-01-20T13:34:57.851Z,100882.53
2023-01-20T13:37:26.536Z,100883.97
2023-01-20T13:39:55.974Z,100890.88
2023-01-20T13:42:44.417Z,100895.00
2023-01-20T13:45:32.805Z,100892.22
2023-01-20T13:48:01.345Z,100900.69
2023-01-20T13:50:30.152Z,100912.09
2023-01-20T13:53:12.874Z,100918.56
2023-01-20T13:55:58.110Z,100914.16
2023-01-20T13:58:27.988Z,100909.81
2023-01-20T14:00:56.049Z,100932.22
2023-01-20T14:03:24.440Z,100939.34
2023-01-20T14:05:52.174Z,100938.03
2023-01-20T14:08:19.991Z,100940.97
2023-01-20T14:10:47.610Z,100956.97
2023-01-20T14:13:19.215Z,100944.03
2023-01-20T14:15:49.359Z,100958.41
2023-01-20T14:18:18.755Z,100964.22
2023-01-20T14:20:56.921Z,100964.38
2023-01-20T14:23:28.768Z,100969.22
2023-01-20T14:26:00.307Z,100981.34
2023-01-20T14:28:27.842Z,100974.16
2023-01-20T14:31:28.822Z,100979.78
2023-01-20T14:33:58.929Z,100990.75
2023-01-20T14:36:26.934Z,100979.94
2023-01-20T14:38:58.180Z,100987.69
2023-01-20T14:41:31.359Z,101006.19
2023-01-20T14:43:59.083Z,101005.38
2023-01-20T14:46:26.818Z,101019.72
2023-01-20T14:48:54.323Z,101022.59
2023-01-20T14:51:23.206Z,101001.53
2023-01-20T14:54:05.603Z,101029.50
2023-01-20T14:56:33.051Z,101032.78
2023-01-20T14:59:00.530Z,101026.44
2023-01-20T15:01:28.108Z,101049.59
2023-01-20T15:03:56.369Z,101050.97
2023-01-20T15:06:25.306Z,101063.19
2023-01-20T15:09:05.703Z,101052.97
2023-01-20T15:11:35.535Z,101052.38
2023-01-20T15:14:08.485Z,101070.41
2023-01-20T15:16:44.786Z,101088.28
2023-01-20T15:19:33.452Z,101070.44
2023-01-20T15:22:21.865Z,101073.81
2023-01-20T15:24:49.547Z,101094.78
2023-01-20T15:27:38.149Z,101096.00
2023-01-20T15:30:16.161Z,101094.06
2023-01-20T15:32:43.828Z,101100.16
2023-01-20T15:35:15.079Z,101124.91
2023-01-20T15:37:44.248Z,101127.91
2023-01-20T15:40:16.051Z,101114.53
2023-01-20T15:42:43.791Z,101130.41
2023-01-20T15:45:13.710Z,101141.75
2023-01-20T15:47:41.194Z,101153.66
2023-01-20T15:50:13.662Z,101158.63
2023-01-20T15:52:41.300Z,101161.63
2023-01-20T15:55:12.189Z,101144.63
2023-01-20T15:57:39.732Z,101163.41
2023-01-20T16:00:07.828Z,101163.72
2023-01-20T16:02:35.340Z,101185.84
2023-01-20T16:05:03.490Z,101175.75
2023-01-20T16:07:30.985Z,101185.16
2023-01-20T16:09:58.510Z,101191.88
2023-01-20T16:12:27.839Z,101203.09
2023-01-20T16:14:55.344Z,101207.91
2023-01-20T16:17:23.132Z,101223.84
2023-01-20T16:19:50.735Z,101220.91
2023-01-20T16:22:18.244Z,101201.50
2023-01-20T16:24:45.792Z,101217.81
2023-01-20T16:27:15.697Z,101220.75
2023-01-20T16:29:44.518Z,101236.72
2023-01-20T16:32:12.096Z,101237.53
2023-01-20T16:34:39.595Z,101230.41
2023-01-20T16:37:07.238Z,101241.22
2023-01-20T16:39:34.910Z,101259.97
2023-01-20T16:42:02.406Z,101249.09
2023-01-20T16:44:29.905Z,101256.78
2023-01-20T16:47:00.204Z,101257.53
2023-01-20T16:49:27.956Z,101259.16
2023-01-20T16:51:55.445Z,101282.41
2023-01-20T16:54:22.940Z,101273.91
2023-01-20T16:56:50.442Z,101275.59
2023-01-20T16:59:18.339Z,101266.50
2023-01-20T17:01:48.024Z,101274.59
2023-01-20T17:04:16.930Z,101289.03
2023-01-20T17:06:44.455Z,101301.69
2023-01-20T17:09:12.133Z,101305.53
2023-01-20T17:11:40.256Z,101292.34
2023-01-20T17:14:08.577Z,101317.19
2023-01-20T17:16:37.090Z,101312.13
2023-01-20T17:19:04.907Z,101307.25
2023-01-20T17:21:34.514Z,101317.06
2023-01-20T17:24:02.929Z,101314.06
2023-01-20T17:26:30.667Z,101332.69
2023-01-20T17:28:58.825Z,101347.66
2023-01-20T17:31:26.411Z,101335.50
2023-01-20T17:33:53.979Z,101342.59
2023-01-20T17:36:22.051Z,101345.50
2023-01-20T17:38:50.933Z,101354.09
2023-01-20T17:41:18.485Z,101363.59
2023-01-20T17:43:46.660Z,101370.19
2023-01-20T17:46:15.005Z,101367.78
2023-01-20T17:48:42.553Z,101366.13
2023-01-20T17:51:10.534Z,101375.97
2023-01-20T17:53:38.115Z,101381.97
2023-01-20T17:56:12.806Z,101379.66
2023-01-20T17:58:40.888Z,101399.88
2023-01-20T18:01:12.004Z,101386.34
2023-01-20T18:03:41.957Z,101394.72
2023-01-20T18:06:10.757Z,101379.19
2023-01-20T18:08:39.167Z,101376.09
2023-01-20T18:11:09.382Z,101406.22
2023-01-20T18:13:37.035Z,101409.63
2023-01-20T18:16:05.315Z,101420.97
2023-01-20T18:18:32.985Z,101415.22
2023-01-20T18:21:08.241Z,101400.78
2023-01-20T18:23:38.195Z,101408.41
2023-01-20T18:26:08.885Z,101413.63
2023-01-20T18:28:36.715Z,101419.47
2023-01-20T18:31:08.469Z,101415.94
2023-01-20T18:33:38.281Z,101433.59
2023-01-20T18:36:05.931Z,101427.69
2023-01-20T18:38:33.450Z,101428.91
2023-01-20T18:41:01.442Z,101423.16
2023-01-20T18:43:30.369Z,101429.19
2023-01-20T18:45:57.955Z,101449.47
2023-01-20T18:48:25.499Z,101457.22
2023-01-20T18:50:53.529Z,101462.47
2023-01-20T18:53:21.068Z,101466.84
2023-01-20T18:55:48.638Z,101463.56
2023-01-20T18:58:17.441Z,101466.34
2023-01-20T19:00:46.269Z,101464.69
2023-01-20T19:03:13.796Z,101472.72
2023-01-20T19:05:41.391Z,101470.13
2023-01-20T19:08:08.881Z,101474.59
2023-01-20T19:10:36.362Z,101478.97
2023-01-20T19:13:03.893Z,101482.50
2023-01-20T19:15:33.628Z,101492.06
2023-01-20T19:18:02.611Z,101494.69
2023-01-20T19:20:30.247Z,101495.81
2023-01-20T19:22:57.778Z,101500.13
2023-01-20T19:25:29.517Z,101499.69
2023-01-20T19:27:57.058Z,101504.13
2023-01-20T19:30:24.550Z,101515.41
2023-01-20T19:32:52.054Z,101528.09
2023-01-20T19:35:21.834Z,101519.59
2023-01-20T19:37:49.394Z,101511.00
2023-01-20T19:40:17.468Z,101518.13
2023-01-20T19:42:48.245Z,101536.13
2023-01-20T19:45:16.231Z,101537.78
2023-01-20T19:47:43.726Z,101550.84
2023-01-20T19:50:11.771Z,101545.81
2023-01-20T19:52:40.573Z,101564.69
2023-01-20T19:55:08.115Z,101555.41
2023-01-20T19:57:35.566Z,101582.00
2023-01-20T20:00:03.597Z,101570.88
2023-01-20T20:02:31.107Z,101566.72
2023-01-20T20:04:58.570Z,101570.22
2023-01-20T20:07:26.053Z,101575.38
2023-01-20T20:09:54.942Z,101578.97
2023-01-20T20:12:22.429Z,101580.69
2023-01-20T20:14:49.885Z,101596.00
2023-01-20T20:17:17.377Z,101587.50
2023-01-20T20:19:44.830Z,101601.28
2023-01-20T20:22:12.323Z,101585.91
2023-01-20T20:24:39.838Z,101603.16
2023-01-20T20:27:08.704Z,101612.59
2023-01-20T20:29:36.279Z,101614.44
2023-01-20T20:32:03.779Z,101617.03
2023-01-20T20:34:31.333Z,101619.47
2023-01-20T20:36:58.874Z,101622.19
2023-01-20T20:39:26.466Z,101634.25
2023-01-20T20:41:55.347Z,101635.97
2023-01-20T20:44:24.177Z,101640.34
2023-01-20T20:46:51.803Z,101647.22
2023-01-20T20:49:19.456Z,101632.69
2023-01-20T20:51:46.949Z,101649.91
2023-01-20T20:54:16.845Z,101650.75
2023-01-20T20:56:44.378Z,101655.91
2023-01-20T20:59:11.928Z,101653.41
2023-01-20T21:01:40.936Z,101649.13
2023-01-20T21:04:08.666Z,101664.69
2023-01-20T21:06:36.196Z,101657.81
2023-01-20T21:09:03.706Z,101675.09
2023-01-20T21:11:31.241Z,101667.34
2023-01-20T21:13:59.067Z,101682.88
2023-01-20T21:16:27.520Z,101678.56
2023-01-20T21:18:57.137Z,101689.81
2023-01-20T21:21:25.086Z,101699.34
2023-01-20T21:23:53.203Z,101698.50
2023-01-20T21:26:21.385Z,101695.03
2023-01-20T21:28:50.055Z,101716.66
2023-01-20T21:31:19.059Z,101701.97
2023-01-20T21:33:46.845Z,101719.25
2023-01-20T21:36:15.669Z,101710.63
2023-01-20T21:38:45.427Z,101723.59
2023-01-20T21:41:13.669Z,101717.53
2023-01-20T21:43:59.204Z,101724.44
2023-01-20T21:46:28.041Z,101725.34
2023-01-20T21:49:12.999Z,101736.56
2023-01-20T21:52:00.595Z,101739.19
2023-01-20T21:54:28.491Z,101734.84
2023-01-20T21:56:55.987Z,101738.31
2023-01-20T21:59:23.451Z,101734.84
2023-01-20T22:01:51.035Z,101748.72
2023-01-20T22:04:18.710Z,101755.66
2023-01-20T22:06:47.542Z,101759.09
2023-01-20T22:09:15.097Z,101759.09
2023-01-20T22:11:42.612Z,101761.69
2023-01-20T22:14:10.189Z,101764.28
2023-01-20T22:16:37.749Z,101778.16
2023-01-20T22:19:05.429Z,101782.47
2023-01-20T22:21:33.259Z,101792.00
2023-01-20T22:24:02.484Z,101797.19
2023-01-20T22:26:29.962Z,101806.69
2023-01-20T22:28:57.502Z,101803.25
2023-01-20T22:31:25.040Z,101792.88
2023-01-20T22:33:52.815Z,101797.19
2023-01-20T22:36:20.390Z,101809.34
2023-01-20T22:38:47.940Z,101800.66
2023-01-20T22:41:16.801Z,101805.00
2023-01-20T22:43:44.903Z,101814.53
2023-01-20T22:46:13.605Z,101812.78
2023-01-20T22:48:41.171Z,101811.03
2023-01-20T22:51:09.274Z,101817.91
2023-01-20T22:53:36.850Z,101822.28
2023-01-20T22:56:05.016Z,101826.59
2023-01-20T22:58:34.085Z,101842.19
2023-01-20T23:01:01.829Z,101830.91
2023-01-20T23:03:29.407Z,101837.78
2023-01-20T23:05:57.781Z,101849.94
2023-01-20T23:08:25.461Z,101845.56
2023-01-20T23:10:55.019Z,101857.72
2023-01-20T23:13:22.630Z,101851.50
2023-01-20T23:15:52.174Z,101869.88
2023-01-20T23:18:19.862Z,101869.06
2023-01-20T23:20:48.466Z,101857.75
2023-01-20T23:23:16.241Z,101863.78
2023-01-20T23:25:43.742Z,101881.97
2023-01-20T23:28:11.251Z,101888.91
2023-01-20T23:30:38.974Z,101895.81
2023-01-20T23:33:07.889Z,101873.97
2023-01-20T23:35:38.657Z,101894.81
2023-01-20T23:38:06.703Z,101891.25
2023-01-20T23:40:34.325Z,101918.34
2023-01-20T23:43:02.049Z,101908.81
2023-01-20T23:45:29.611Z,101914.88
2023-01-20T23:47:57.119Z,101911.25
2023-01-20T23:50:25.971Z,101910.19
2023-01-20T23:52:53.441Z,101922.38
2023-01-20T23:55:20.982Z,101925.94
2023-01-20T23:57:48.599Z,101936.34
